sensor_id;sensor_type;location;lat;lon;timestamp;pressure;altitude;pressure_sealevel;temperature;humidity
64192;BME280;50497;50.720;-2.084;2022-09-29T00:00:19;100179.53;;;7.01;100.00
64192;BME280;50497;50.720;-2.084;2022-09-29T00:02:48;100162.25;;;6.91;100.00
64192;BME280;50497;50.720;-2.084;2022-09-29T00:05:14;100177.72;;;7.02;100.00
64192;BME280;50497;50.720;-2.084;2022-09-29T00:07:39;100174.28;;;7.00;100.00
64192;BME280;50497;50.720;-2.084;2022-09-29T00:10:07;100156.19;;;6.88;100.00
64192;BME280;50497;50.720;-2.084;2022-09-29T00:12:33;100179.59;;;7.00;100.00
64192;BME280;50497;50.720;-2.084;2022-09-29T00:14:58;100173.50;;;6.98;100.00
64192;BME280;50497;50.720;-2.084;2022-09-29T00:17:28;100175.34;;;6.96;100.00
64192;BME280;50497;50.720;-2.084;2022-09-29T00:19:54;100164.97;;;6.90;100.00
64192;BME280;50497;50.720;-2.084;2022-09-29T00:22:19;100166.75;;;6.89;100.00
64192;BME280;50497;50.720;-2.084;2022-09-29T00:24:47;100163.22;;;6.89;100.00
64192;BME280;50497;50.720;-2.084;2022-09-29T00:27:17;100161.63;;;6.84;100.00
64192;BME280;50497;50.720;-2.084;2022-09-29T00:29:46;100152.09;;;6.79;100.00
64192;BME280;50497;50.720;-2.084;2022-09-29T00:32:12;100155.94;;;6.72;100.00
64192;BME280;50497;50.720;-2.084;2022-09-29T00:34:40;100158.28;;;6.57;100.00
64192;BME280;50497;50.720;-2.084;2022-09-29T00:37:06;100162.25;;;6.69;100.00
64192;BME280;50497;50.720;-2.084;2022-09-29T00:39:36;100150.41;;;6.56;100.00
64192;BME280;50497;50.720;-2.084;2022-09-29T00:42:01;100155.63;;;6.57;100.00
64192;BME280;50497;50.720;-2.084;2022-09-29T00:47:16;100161.31;;;6.48;100.00
64192;BME280;50497;50.720;-2.084;2022-09-29T00:49:49;100169.53;;;6.42;100.00
64192;BME280;50497;50.720;-2.084;2022-09-29T00:52:31;100165.41;;;6.35;100.00
64192;BME280;50497;50.720;-2.084;2022-09-29T00:55:13;100155.00;;;6.28;100.00
64192;BME280;50497;50.720;-2.084;2022-09-29T00:57:49;100157.81;;;6.24;100.00
64192;BME280;50497;50.720;-2.084;2022-09-29T01:00:16;100138.94;;;6.09;100.00
64192;BME280;50497;50.720;-2.084;2022-09-29T01:02:47;100152.84;;;6.16;100.00
64192;BME280;50497;50.720;-2.084;2022-09-29T01:05:23;100146.13;;;6.06;100.00
64192;BME280;50497;50.720;-2.084;2022-09-29T01:07:54;100139.84;;;6.08;100.00
64192;BME280;50497;50.720;-2.084;2022-09-29T01:10:23;100145.84;;;6.14;100.00
64192;BME280;50497;50.720;-2.084;2022-09-29T01:12:54;100151.25;;;6.10;100.00
64192;BME280;50497;50.720;-2.084;2022-09-29T01:15:20;100145.16;;;6.08;100.00
64192;BME280;50497;50.720;-2.084;2022-09-29T01:17:47;100145.03;;;6.12;100.00
64192;BME280;50497;50.720;-2.084;2022-09-29T01:20:21;100156.50;;;6.12;100.00
64192;BME280;50497;50.720;-2.084;2022-09-29T01:31:33;100141.94;;;6.22;100.00
64192;BME280;50497;50.720;-2.084;2022-09-29T01:37:13;100144.81;;;6.18;100.00
64192;BME280;50497;50.720;-2.084;2022-09-29T01:39:47;100143.56;;;6.26;100.00
64192;BME280;50497;50.720;-2.084;2022-09-29T01:42:18;100122.72;;;6.16;100.00
64192;BME280;50497;50.720;-2.084;2022-09-29T01:44:53;100148.16;;;6.23;100.00
64192;BME280;50497;50.720;-2.084;2022-09-29T01:47:41;100148.94;;;6.25;100.00
64192;BME280;50497;50.720;-2.084;2022-09-29T01:50:19;100160.75;;;6.18;100.00
64192;BME280;50497;50.720;-2.084;2022-09-29T01:52:50;100154.53;;;6.17;100.00
64192;BME280;50497;50.720;-2.084;2022-09-29T01:55:24;100162.06;;;6.06;100.00
64192;BME280;50497;50.720;-2.084;2022-09-29T01:58:03;100153.16;;;6.07;100.00
64192;BME280;50497;50.720;-2.084;2022-09-29T02:00:34;100135.88;;;5.95;100.00
64192;BME280;50497;50.720;-2.084;2022-09-29T02:03:14;100138.66;;;5.92;100.00
64192;BME280;50497;50.720;-2.084;2022-09-29T02:06:03;100146.50;;;5.95;100.00
64192;BME280;50497;50.720;-2.084;2022-09-29T02:08:29;100145.66;;;5.95;100.00
64192;BME280;50497;50.720;-2.084;2022-09-29T02:11:11;100128.50;;;5.80;100.00
64192;BME280;50497;50.720;-2.084;2022-09-29T02:13:54;100126.06;;;5.73;100.00
64192;BME280;50497;50.720;-2.084;2022-09-29T02:16:34;100138.38;;;5.76;100.00
64192;BME280;50497;50.720;-2.084;2022-09-29T02:19:04;100124.47;;;5.69;100.00
64192;BME280;50497;50.720;-2.084;2022-09-29T02:21:34;100129.41;;;5.79;100.00
64192;BME280;50497;50.720;-2.084;2022-09-29T02:24:00;100133.94;;;5.77;100.00
64192;BME280;50497;50.720;-2.084;2022-09-29T02:26:33;100132.25;;;5.74;100.00
64192;BME280;50497;50.720;-2.084;2022-09-29T02:29:01;100138.38;;;5.76;100.00
64192;BME280;50497;50.720;-2.084;2022-09-29T02:31:31;100133.75;;;5.81;100.00
64192;BME280;50497;50.720;-2.084;2022-09-29T02:34:00;100129.38;;;5.80;100.00
64192;BME280;50497;50.720;-2.084;2022-09-29T02:39:08;100129.19;;;5.85;100.00
64192;BME280;50497;50.720;-2.084;2022-09-29T02:42:04;100114.59;;;5.73;100.00
64192;BME280;50497;50.720;-2.084;2022-09-29T02:47:52;100130.34;;;5.78;100.00
64192;BME280;50497;50.720;-2.084;2022-09-29T02:53:36;100112.69;;;5.77;100.00
64192;BME280;50497;50.720;-2.084;2022-09-29T02:56:12;100119.38;;;5.87;100.00
64192;BME280;50497;50.720;-2.084;2022-09-29T03:01:17;100128.63;;;6.00;100.00
64192;BME280;50497;50.720;-2.084;2022-09-29T03:03:45;100123.78;;;6.12;100.00
64192;BME280;50497;50.720;-2.084;2022-09-29T03:06:18;100125.94;;;6.24;100.00
64192;BME280;50497;50.720;-2.084;2022-09-29T03:08:45;100106.31;;;6.28;100.00
64192;BME280;50497;50.720;-2.084;2022-09-29T03:11:11;100120.78;;;6.43;100.00
64192;BME280;50497;50.720;-2.084;2022-09-29T03:13:40;100121.41;;;6.50;100.00
64192;BME280;50497;50.720;-2.084;2022-09-29T03:16:06;100125.53;;;6.57;100.00
64192;BME280;50497;50.720;-2.084;2022-09-29T03:18:32;100122.75;;;6.60;100.00
64192;BME280;50497;50.720;-2.084;2022-09-29T03:20:59;100123.31;;;6.68;100.00
64192;BME280;50497;50.720;-2.084;2022-09-29T03:23:24;100116.97;;;6.71;100.00
64192;BME280;50497;50.720;-2.084;2022-09-29T03:25:50;100110.75;;;6.72;100.00
64192;BME280;50497;50.720;-2.084;2022-09-29T03:28:16;100118.34;;;6.81;100.00
64192;BME280;50497;50.720;-2.084;2022-09-29T03:30:41;100118.22;;;6.84;100.00
64192;BME280;50497;50.720;-2.084;2022-09-29T03:33:07;100114.38;;;6.91;100.00
64192;BME280;50497;50.720;-2.084;2022-09-29T03:35:32;100118.44;;;7.00;100.00
64192;BME280;50497;50.720;-2.084;2022-09-29T03:38:02;100118.25;;;7.05;100.00
64192;BME280;50497;50.720;-2.084;2022-09-29T03:40:27;100115.25;;;7.12;100.00
64192;BME280;50497;50.720;-2.084;2022-09-29T03:42:53;100105.47;;;7.13;100.00
64192;BME280;50497;50.720;-2.084;2022-09-29T03:45:18;100113.91;;;7.22;100.00
64192;BME280;50497;50.720;-2.084;2022-09-29T03:47:44;100114.53;;;7.29;100.00
64192;BME280;50497;50.720;-2.084;2022-09-29T03:50:13;100106.84;;;7.21;100.00
64192;BME280;50497;50.720;-2.084;2022-09-29T03:52:39;100100.56;;;7.24;100.00
64192;BME280;50497;50.720;-2.084;2022-09-29T03:55:05;100102.00;;;7.31;100.00
64192;BME280;50497;50.720;-2.084;2022-09-29T03:57:34;100103.69;;;7.34;100.00
64192;BME280;50497;50.720;-2.084;2022-09-29T04:00:00;100110.31;;;7.44;100.00
64192;BME280;50497;50.720;-2.084;2022-09-29T04:02:25;100124.34;;;7.48;100.00
64192;BME280;50497;50.720;-2.084;2022-09-29T04:04:55;100110.13;;;7.49;100.00
64192;BME280;50497;50.720;-2.084;2022-09-29T04:07:24;100112.69;;;7.50;100.00
64192;BME280;50497;50.720;-2.084;2022-09-29T04:09:49;100119.75;;;7.51;100.00
64192;BME280;50497;50.720;-2.084;2022-09-29T04:12:15;100117.88;;;7.53;100.00
64192;BME280;50497;50.720;-2.084;2022-09-29T04:14:44;100115.66;;;7.63;100.00
64192;BME280;50497;50.720;-2.084;2022-09-29T04:17:13;100099.91;;;7.58;100.00
64192;BME280;50497;50.720;-2.084;2022-09-29T04:19:38;100107.09;;;7.56;100.00
64192;BME280;50497;50.720;-2.084;2022-09-29T04:22:08;100120.91;;;7.65;100.00
64192;BME280;50497;50.720;-2.084;2022-09-29T04:24:37;100114.25;;;7.75;100.00
64192;BME280;50497;50.720;-2.084;2022-09-29T04:27:06;100121.38;;;7.74;100.00
64192;BME280;50497;50.720;-2.084;2022-09-29T04:29:38;100115.91;;;7.77;100.00
64192;BME280;50497;50.720;-2.084;2022-09-29T04:32:08;100113.19;;;7.79;100.00
64192;BME280;50497;50.720;-2.084;2022-09-29T04:34:42;100115.56;;;7.85;100.00
64192;BME280;50497;50.720;-2.084;2022-09-29T04:37:09;100113.84;;;7.84;100.00
64192;BME280;50497;50.720;-2.084;2022-09-29T04:39:36;100105.91;;;7.83;100.00
64192;BME280;50497;50.720;-2.084;2022-09-29T04:42:01;100095.59;;;7.75;100.00
64192;BME280;50497;50.720;-2.084;2022-09-29T04:44:30;100102.66;;;7.76;100.00
64192;BME280;50497;50.720;-2.084;2022-09-29T04:46:56;100109.16;;;7.89;100.00
64192;BME280;50497;50.720;-2.084;2022-09-29T04:49:21;100111.81;;;7.89;100.00
64192;BME280;50497;50.720;-2.084;2022-09-29T04:51:50;100114.47;;;7.89;100.00
64192;BME280;50497;50.720;-2.084;2022-09-29T04:54:16;100102.81;;;7.73;100.00
64192;BME280;50497;50.720;-2.084;2022-09-29T04:56:48;100121.97;;;7.81;100.00
64192;BME280;50497;50.720;-2.084;2022-09-29T04:59:13;100106.25;;;7.75;100.00
64192;BME280;50497;50.720;-2.084;2022-09-29T05:01:39;100100.00;;;7.76;100.00
64192;BME280;50497;50.720;-2.084;2022-09-29T05:04:04;100107.94;;;7.77;100.00
64192;BME280;50497;50.720;-2.084;2022-09-29T05:06:30;100116.63;;;7.81;100.00
64192;BME280;50497;50.720;-2.084;2022-09-29T05:08:58;100111.22;;;7.83;100.00
64192;BME280;50497;50.720;-2.084;2022-09-29T05:11:30;100111.44;;;7.78;100.00
64192;BME280;50497;50.720;-2.084;2022-09-29T05:13:56;100112.91;;;7.85;100.00
64192;BME280;50497;50.720;-2.084;2022-09-29T05:16:31;100107.84;;;7.79;100.00
64192;BME280;50497;50.720;-2.084;2022-09-29T05:18:56;100120.72;;;7.88;100.00
64192;BME280;50497;50.720;-2.084;2022-09-29T05:21:22;100127.94;;;7.86;100.00
64192;BME280;50497;50.720;-2.084;2022-09-29T05:23:50;100121.53;;;7.90;100.00
64192;BME280;50497;50.720;-2.084;2022-09-29T05:26:19;100109.88;;;7.93;100.00
64192;BME280;50497;50.720;-2.084;2022-09-29T05:28:46;100114.13;;;7.97;100.00
64192;BME280;50497;50.720;-2.084;2022-09-29T05:31:12;100125.38;;;8.04;100.00
64192;BME280;50497;50.720;-2.084;2022-09-29T05:33:41;100131.34;;;8.09;100.00
64192;BME280;50497;50.720;-2.084;2022-09-29T05:36:13;100130.44;;;8.08;100.00
64192;BME280;50497;50.720;-2.084;2022-09-29T05:38:43;100133.69;;;8.15;100.00
64192;BME280;50497;50.720;-2.084;2022-09-29T05:41:12;100134.44;;;8.19;100.00
64192;BME280;50497;50.720;-2.084;2022-09-29T05:43:38;100132.84;;;8.14;100.00
64192;BME280;50497;50.720;-2.084;2022-09-29T05:46:07;100138.09;;;8.16;100.00
64192;BME280;50497;50.720;-2.084;2022-09-29T05:48:39;100127.44;;;8.16;100.00
64192;BME280;50497;50.720;-2.084;2022-09-29T05:51:09;100126.50;;;8.17;100.00
64192;BME280;50497;50.720;-2.084;2022-09-29T05:53:35;100134.00;;;8.09;100.00
64192;BME280;50497;50.720;-2.084;2022-09-29T05:56:12;100137.31;;;8.14;100.00
64192;BME280;50497;50.720;-2.084;2022-09-29T05:58:42;100145.59;;;8.08;100.00
64192;BME280;50497;50.720;-2.084;2022-09-29T06:01:20;100147.00;;;8.15;100.00
64192;BME280;50497;50.720;-2.084;2022-09-29T06:03:53;100149.53;;;8.18;100.00
64192;BME280;50497;50.720;-2.084;2022-09-29T06:06:24;100152.22;;;8.18;100.00
64192;BME280;50497;50.720;-2.084;2022-09-29T06:08:59;100155.69;;;8.20;100.00
64192;BME280;50497;50.720;-2.084;2022-09-29T06:11:30;100160.13;;;8.20;100.00
64192;BME280;50497;50.720;-2.084;2022-09-29T06:14:02;100158.50;;;8.17;100.00
64192;BME280;50497;50.720;-2.084;2022-09-29T06:16:29;100162.72;;;8.21;100.00
64192;BME280;50497;50.720;-2.084;2022-09-29T06:18:57;100163.81;;;8.17;100.00
64192;BME280;50497;50.720;-2.084;2022-09-29T06:21:26;100166.50;;;8.17;100.00
64192;BME280;50497;50.720;-2.084;2022-09-29T06:23:55;100171.81;;;8.17;100.00
64192;BME280;50497;50.720;-2.084;2022-09-29T06:26:22;100162.16;;;8.14;100.00
64192;BME280;50497;50.720;-2.084;2022-09-29T06:28:47;100163.97;;;8.14;100.00
64192;BME280;50497;50.720;-2.084;2022-09-29T06:31:19;100161.44;;;8.11;100.00
64192;BME280;50497;50.720;-2.084;2022-09-29T06:33:45;100169.00;;;8.20;100.00
64192;BME280;50497;50.720;-2.084;2022-09-29T06:39:33;100167.63;;;8.11;100.00
64192;BME280;50497;50.720;-2.084;2022-09-29T06:41:58;100175.41;;;8.16;100.00
64192;BME280;50497;50.720;-2.084;2022-09-29T06:44:25;100172.19;;;8.28;100.00
64192;BME280;50497;50.720;-2.084;2022-09-29T06:46:52;100182.84;;;8.28;100.00
64192;BME280;50497;50.720;-2.084;2022-09-29T06:49:19;100167.91;;;8.24;100.00
64192;BME280;50497;50.720;-2.084;2022-09-29T06:51:44;100185.19;;;8.35;100.00
64192;BME280;50497;50.720;-2.084;2022-09-29T06:54:15;100191.09;;;8.41;100.00
64192;BME280;50497;50.720;-2.084;2022-09-29T06:56:41;100192.41;;;8.51;100.00
64192;BME280;50497;50.720;-2.084;2022-09-29T06:59:09;100191.28;;;8.57;100.00
64192;BME280;50497;50.720;-2.084;2022-09-29T07:01:34;100182.44;;;8.57;100.00
64192;BME280;50497;50.720;-2.084;2022-09-29T07:04:03;100201.50;;;8.66;100.00
64192;BME280;50497;50.720;-2.084;2022-09-29T07:06:33;100198.59;;;8.71;100.00
64192;BME280;50497;50.720;-2.084;2022-09-29T07:08:59;100202.72;;;8.78;100.00
64192;BME280;50497;50.720;-2.084;2022-09-29T07:11:25;100181.34;;;8.61;100.00
64192;BME280;50497;50.720;-2.084;2022-09-29T07:13:55;100196.81;;;8.72;100.00
64192;BME280;50497;50.720;-2.084;2022-09-29T07:16:21;100190.66;;;8.88;100.00
64192;BME280;50497;50.720;-2.084;2022-09-29T07:18:50;100184.44;;;8.88;100.00
64192;BME280;50497;50.720;-2.084;2022-09-29T07:21:20;100193.84;;;8.78;100.00
64192;BME280;50497;50.720;-2.084;2022-09-29T07:23:46;100189.81;;;8.69;100.00
64192;BME280;50497;50.720;-2.084;2022-09-29T07:26:16;100191.78;;;8.65;100.00
64192;BME280;50497;50.720;-2.084;2022-09-29T07:28:43;100190.66;;;8.52;100.00
64192;BME280;50497;50.720;-2.084;2022-09-29T07:31:11;100194.31;;;8.49;100.00
64192;BME280;50497;50.720;-2.084;2022-09-29T07:33:44;100192.13;;;8.39;100.00
64192;BME280;50497;50.720;-2.084;2022-09-29T07:36:10;100182.41;;;8.38;100.00
64192;BME280;50497;50.720;-2.084;2022-09-29T07:38:35;100192.19;;;8.37;100.00
64192;BME280;50497;50.720;-2.084;2022-09-29T07:41:07;100200.66;;;8.47;100.00
64192;BME280;50497;50.720;-2.084;2022-09-29T07:43:35;100197.53;;;8.37;100.00
64192;BME280;50497;50.720;-2.084;2022-09-29T07:46:06;100203.34;;;8.47;100.00
64192;BME280;50497;50.720;-2.084;2022-09-29T07:48:33;100217.16;;;8.55;100.00
64192;BME280;50497;50.720;-2.084;2022-09-29T07:51:05;100223.78;;;8.65;100.00
64192;BME280;50497;50.720;-2.084;2022-09-29T07:53:32;100209.50;;;8.66;100.00
64192;BME280;50497;50.720;-2.084;2022-09-29T07:56:10;100228.72;;;8.92;100.00
64192;BME280;50497;50.720;-2.084;2022-09-29T07:58:40;100232.28;;;9.10;100.00
64192;BME280;50497;50.720;-2.084;2022-09-29T08:01:11;100216.84;;;9.17;100.00
64192;BME280;50497;50.720;-2.084;2022-09-29T08:03:38;100227.94;;;9.27;100.00
64192;BME280;50497;50.720;-2.084;2022-09-29T08:06:05;100252.81;;;9.44;100.00
64192;BME280;50497;50.720;-2.084;2022-09-29T08:08:34;100245.53;;;9.48;100.00
64192;BME280;50497;50.720;-2.084;2022-09-29T08:11:05;100252.91;;;9.60;100.00
64192;BME280;50497;50.720;-2.084;2022-09-29T08:13:31;100240.09;;;9.67;100.00
64192;BME280;50497;50.720;-2.084;2022-09-29T08:15:59;100263.88;;;10.07;100.00
64192;BME280;50497;50.720;-2.084;2022-09-29T08:18:26;100265.19;;;10.33;100.00
64192;BME280;50497;50.720;-2.084;2022-09-29T08:20:56;100270.47;;;10.50;100.00
64192;BME280;50497;50.720;-2.084;2022-09-29T08:23:22;100270.31;;;10.53;100.00
64192;BME280;50497;50.720;-2.084;2022-09-29T08:25:57;100281.44;;;10.62;100.00
64192;BME280;50497;50.720;-2.084;2022-09-29T08:28:23;100281.00;;;10.53;100.00
64192;BME280;50497;50.720;-2.084;2022-09-29T08:30:48;100285.63;;;10.83;100.00
64192;BME280;50497;50.720;-2.084;2022-09-29T08:33:14;100288.66;;;11.09;100.00
64192;BME280;50497;50.720;-2.084;2022-09-29T08:35:40;100290.88;;;11.33;100.00
64192;BME280;50497;50.720;-2.084;2022-09-29T08:38:06;100287.13;;;11.35;100.00
64192;BME280;50497;50.720;-2.084;2022-09-29T08:40:31;100292.81;;;11.91;100.00
64192;BME280;50497;50.720;-2.084;2022-09-29T08:45:38;100277.44;;;12.52;100.00
64192;BME280;50497;50.720;-2.084;2022-09-29T08:48:10;100280.91;;;13.10;100.00
64192;BME280;50497;50.720;-2.084;2022-09-29T08:50:47;100276.59;;;13.62;100.00
64192;BME280;50497;50.720;-2.084;2022-09-29T08:53:19;100270.97;;;14.70;100.00
64192;BME280;50497;50.720;-2.084;2022-09-29T08:55:59;100262.06;;;14.93;100.00
64192;BME280;50497;50.720;-2.084;2022-09-29T08:58:26;100265.03;;;15.14;100.00
64192;BME280;50497;50.720;-2.084;2022-09-29T09:20:43;100314.94;;;13.79;100.00
64192;BME280;50497;50.720;-2.084;2022-09-29T09:23:33;100320.16;;;13.55;100.00
64192;BME280;50497;50.720;-2.084;2022-09-29T09:26:14;100315.34;;;13.18;100.00
64192;BME280;50497;50.720;-2.084;2022-09-29T09:28:48;100322.00;;;12.84;100.00
64192;BME280;50497;50.720;-2.084;2022-09-29T09:31:42;100327.75;;;12.63;100.00
64192;BME280;50497;50.720;-2.084;2022-09-29T09:34:20;100334.38;;;12.57;100.00
64192;BME280;50497;50.720;-2.084;2022-09-29T09:37:19;100339.38;;;12.64;100.00
64192;BME280;50497;50.720;-2.084;2022-09-29T09:40:25;100344.06;;;12.60;100.00
64192;BME280;50497;50.720;-2.084;2022-09-29T09:43:03;100349.69;;;12.70;100.00
64192;BME280;50497;50.720;-2.084;2022-09-29T09:45:33;100349.13;;;12.79;100.00
64192;BME280;50497;50.720;-2.084;2022-09-29T09:51:01;100362.38;;;12.97;100.00
64192;BME280;50497;50.720;-2.084;2022-09-29T09:53:36;100363.31;;;12.96;100.00
64192;BME280;50497;50.720;-2.084;2022-09-29T09:56:19;100373.69;;;12.73;100.00
64192;BME280;50497;50.720;-2.084;2022-09-29T10:01:47;100363.47;;;12.35;100.00
64192;BME280;50497;50.720;-2.084;2022-09-29T10:04:13;100364.63;;;12.31;100.00
64192;BME280;50497;50.720;-2.084;2022-09-29T10:06:44;100372.09;;;12.40;100.00
64192;BME280;50497;50.720;-2.084;2022-09-29T10:09:14;100378.84;;;12.62;100.00
64192;BME280;50497;50.720;-2.084;2022-09-29T10:11:41;100381.72;;;12.73;100.00
64192;BME280;50497;50.720;-2.084;2022-09-29T10:14:21;100379.06;;;12.59;100.00
64192;BME280;50497;50.720;-2.084;2022-09-29T10:17:00;100386.25;;;12.72;100.00
64192;BME280;50497;50.720;-2.084;2022-09-29T10:19:59;100385.97;;;12.77;100.00
64192;BME280;50497;50.720;-2.084;2022-09-29T10:22:28;100393.31;;;12.59;100.00
64192;BME280;50497;50.720;-2.084;2022-09-29T10:25:11;100397.75;;;12.60;100.00
64192;BME280;50497;50.720;-2.084;2022-09-29T10:27:44;100399.09;;;12.67;100.00
64192;BME280;50497;50.720;-2.084;2022-09-29T10:32:57;100401.75;;;12.53;100.00
64192;BME280;50497;50.720;-2.084;2022-09-29T10:35:31;100390.84;;;12.85;100.00
64192;BME280;50497;50.720;-2.084;2022-09-29T10:38:02;100396.97;;;13.16;100.00
64192;BME280;50497;50.720;-2.084;2022-09-29T10:40:33;100416.06;;;13.40;100.00
64192;BME280;50497;50.720;-2.084;2022-09-29T10:43:23;100410.72;;;12.97;100.00
64192;BME280;50497;50.720;-2.084;2022-09-29T10:45:49;100413.38;;;12.68;100.00
64192;BME280;50497;50.720;-2.084;2022-09-29T10:48:15;100413.81;;;12.46;100.00
64192;BME280;50497;50.720;-2.084;2022-09-29T10:53:39;100417.38;;;14.29;100.00
64192;BME280;50497;50.720;-2.084;2022-09-29T10:56:16;100407.81;;;15.27;100.00
64192;BME280;50497;50.720;-2.084;2022-09-29T10:58:52;100402.69;;;15.48;100.00
64192;BME280;50497;50.720;-2.084;2022-09-29T11:01:19;100400.41;;;15.05;100.00
64192;BME280;50497;50.720;-2.084;2022-09-29T11:06:16;100403.13;;;16.03;100.00
64192;BME280;50497;50.720;-2.084;2022-09-29T11:13:52;100393.81;;;17.79;100.00
64192;BME280;50497;50.720;-2.084;2022-09-29T11:16:25;100393.88;;;18.53;100.00
64192;BME280;50497;50.720;-2.084;2022-09-29T11:18:55;100396.91;;;19.52;100.00
64192;BME280;50497;50.720;-2.084;2022-09-29T11:27:10;100400.91;;;19.08;100.00
64192;BME280;50497;50.720;-2.084;2022-09-29T11:29:49;100410.38;;;18.71;100.00
64192;BME280;50497;50.720;-2.084;2022-09-29T11:35:32;100423.47;;;18.87;100.00
64192;BME280;50497;50.720;-2.084;2022-09-29T11:46:04;100414.31;;;19.50;100.00
64192;BME280;50497;50.720;-2.084;2022-09-29T11:57:00;100425.72;;;20.33;100.00
64192;BME280;50497;50.720;-2.084;2022-09-29T12:20:57;100423.34;;;21.34;100.00
64192;BME280;50497;50.720;-2.084;2022-09-29T12:23:27;100423.59;;;21.96;100.00
64192;BME280;50497;50.720;-2.084;2022-09-29T12:26:10;100415.75;;;22.11;100.00
64192;BME280;50497;50.720;-2.084;2022-09-29T12:28:43;100427.13;;;21.23;100.00
64192;BME280;50497;50.720;-2.084;2022-09-29T12:31:40;100427.16;;;20.66;100.00
64192;BME280;50497;50.720;-2.084;2022-09-29T12:34:37;100416.38;;;19.67;100.00
64192;BME280;50497;50.720;-2.084;2022-09-29T12:38:10;100425.03;;;18.69;100.00
64192;BME280;50497;50.720;-2.084;2022-09-29T12:46:17;100423.28;;;20.30;100.00
64192;BME280;50497;50.720;-2.084;2022-09-29T12:51:49;100438.38;;;18.39;100.00
64192;BME280;50497;50.720;-2.084;2022-09-29T12:57:15;100438.56;;;17.83;100.00
64192;BME280;50497;50.720;-2.084;2022-09-29T12:59:43;100433.88;;;17.18;100.00
64192;BME280;50497;50.720;-2.084;2022-09-29T13:16:40;100447.19;;;16.39;100.00
64192;BME280;50497;50.720;-2.084;2022-09-29T13:27:40;100459.22;;;16.82;100.00
64192;BME280;50497;50.720;-2.084;2022-09-29T13:30:28;100464.69;;;17.05;100.00
64192;BME280;50497;50.720;-2.084;2022-09-29T13:33:20;100459.03;;;17.08;100.00
64192;BME280;50497;50.720;-2.084;2022-09-29T13:35:51;100456.56;;;17.05;100.00
64192;BME280;50497;50.720;-2.084;2022-09-29T13:38:20;100451.66;;;17.55;100.00
64192;BME280;50497;50.720;-2.084;2022-09-29T13:41:09;100463.34;;;17.33;100.00
64192;BME280;50497;50.720;-2.084;2022-09-29T13:49:24;100483.75;;;16.68;100.00
64192;BME280;50497;50.720;-2.084;2022-09-29T13:54:39;100492.41;;;16.24;100.00
64192;BME280;50497;50.720;-2.084;2022-09-29T13:59:39;100494.81;;;16.16;100.00
64192;BME280;50497;50.720;-2.084;2022-09-29T14:02:33;100500.97;;;16.78;100.00
64192;BME280;50497;50.720;-2.084;2022-09-29T14:04:59;100486.66;;;16.89;100.00
64192;BME280;50497;50.720;-2.084;2022-09-29T14:07:49;100510.91;;;16.77;100.00
64192;BME280;50497;50.720;-2.084;2022-09-29T14:13:00;100503.00;;;16.63;100.00
64192;BME280;50497;50.720;-2.084;2022-09-29T14:15:34;100505.41;;;16.55;100.00
64192;BME280;50497;50.720;-2.084;2022-09-29T14:18:15;100508.94;;;16.79;100.00
64192;BME280;50497;50.720;-2.084;2022-09-29T14:21:04;100515.72;;;16.50;100.00
64192;BME280;50497;50.720;-2.084;2022-09-29T14:23:52;100509.44;;;16.14;100.00
64192;BME280;50497;50.720;-2.084;2022-09-29T14:26:45;100518.56;;;15.87;100.00
64192;BME280;50497;50.720;-2.084;2022-09-29T14:29:23;100522.38;;;15.84;100.00
64192;BME280;50497;50.720;-2.084;2022-09-29T14:31:54;100524.09;;;15.60;100.00
64192;BME280;50497;50.720;-2.084;2022-09-29T14:34:23;100519.34;;;15.63;100.00
64192;BME280;50497;50.720;-2.084;2022-09-29T14:36:52;100527.31;;;15.65;100.00
64192;BME280;50497;50.720;-2.084;2022-09-29T14:39:19;100546.63;;;15.59;100.00
64192;BME280;50497;50.720;-2.084;2022-09-29T14:41:46;100536.81;;;15.70;100.00
64192;BME280;50497;50.720;-2.084;2022-09-29T14:44:17;100530.78;;;15.80;100.00
64192;BME280;50497;50.720;-2.084;2022-09-29T14:56:10;100545.41;;;16.50;100.00
64192;BME280;50497;50.720;-2.084;2022-09-29T14:58:46;100548.19;;;16.13;100.00
64192;BME280;50497;50.720;-2.084;2022-09-29T15:01:29;100537.69;;;16.21;100.00
64192;BME280;50497;50.720;-2.084;2022-09-29T15:03:57;100549.28;;;16.34;100.00
64192;BME280;50497;50.720;-2.084;2022-09-29T15:06:29;100539.75;;;16.17;100.00
64192;BME280;50497;50.720;-2.084;2022-09-29T15:08:59;100559.25;;;16.45;100.00
64192;BME280;50497;50.720;-2.084;2022-09-29T15:13:58;100558.88;;;16.14;100.00
64192;BME280;50497;50.720;-2.084;2022-09-29T15:16:35;100567.19;;;16.11;100.00
64192;BME280;50497;50.720;-2.084;2022-09-29T15:27:37;100555.66;;;16.33;100.00
64192;BME280;50497;50.720;-2.084;2022-09-29T15:30:10;100564.75;;;16.32;100.00
64192;BME280;50497;50.720;-2.084;2022-09-29T15:32:43;100571.97;;;16.32;100.00
64192;BME280;50497;50.720;-2.084;2022-09-29T15:35:13;100574.78;;;16.30;100.00
64192;BME280;50497;50.720;-2.084;2022-09-29T15:40:19;100586.72;;;16.15;100.00
64192;BME280;50497;50.720;-2.084;2022-09-29T15:42:46;100584.22;;;16.12;100.00
64192;BME280;50497;50.720;-2.084;2022-09-29T15:45:14;100586.25;;;16.21;100.00
64192;BME280;50497;50.720;-2.084;2022-09-29T15:47:44;100583.91;;;16.16;100.00
64192;BME280;50497;50.720;-2.084;2022-09-29T15:50:19;100595.00;;;16.24;100.00
64192;BME280;50497;50.720;-2.084;2022-09-29T15:52:46;100597.03;;;16.34;100.00
64192;BME280;50497;50.720;-2.084;2022-09-29T15:55:14;100608.34;;;16.39;100.00
64192;BME280;50497;50.720;-2.084;2022-09-29T15:57:44;100603.19;;;16.23;100.00
64192;BME280;50497;50.720;-2.084;2022-09-29T16:03:02;100607.03;;;16.07;100.00
64192;BME280;50497;50.720;-2.084;2022-09-29T16:05:30;100605.06;;;16.10;100.00
64192;BME280;50497;50.720;-2.084;2022-09-29T16:08:24;100606.41;;;15.78;100.00